Court-Saint-Etienne, Belgium
Current Conditions -  °F | °C
As of 1:25 AM on Wednesday 22 Oct 2014 (Local Time) from EBBE Reporting Station
Few Clouds Few Clouds  
Wind Chill:   Ceiling: Unl
Heat Index:   Visibility: 6mi
Dew Point:   Wind: 15mph
Humidity: 76%   Direction: 270°W
Pressure: 29.94"   Gusts: NA
Location:  50.63°N, 4.57°E
Report Text: EBBE 212325Z AUTO 27013KT 9999 FEW075/// 07/03 Q1014 BLU
Loading
Personal Weather Stations






























Interactive Weather Map
Tropical Storm Tracking
New forecast layout! Learn more

10-Day Weather Forecast

Advertisements
Track Severe Weather on mobile